45VA weather

CLOSED Frog Hollow Farm Airport
West Point, Virginia, United States

Public forecast

Using degrees Fahrenheit for public forecast. Weather courtesy of forecast.io.

METAR (pilot weather report)

Closest report is Tappahannock-Essex County Airport, 11.0 nm (20.3 km) NNE. Retrieved 2019/01/17 16:35 UTC (17 minutes ago):

KXSA 171635Z AUTO 05003KT 10SM OVC044 04/M02 A3037 RMK AO2 T00371024

TAF (pilot weather forecast)

Closest forecast is Richmond International Airport, 19.2 nm (35.6 km) SW. Retrieved 2019/01/17 12:22 UTC (4 hours ago):

TAF KRIC 171120Z 1712/1812 00000KT P6SM BKN045 FM171400 05004KT P6SM BKN080 FM172200 13004KT P6SM OVC060 FM180200 16004KT 6SM -RA OVC060 FM180500 17005KT 6SM -RA OVC030 FM180700 20005KT P6SM OVC025